sensor_id;sensor_type;location;lat;lon;timestamp;P1;durP1;ratioP1;P2;durP2;ratioP2
14817;SDS011;7500;57.698;11.986;2024-02-21T00:01:18;28.97;;;5.87;;
14817;SDS011;7500;57.698;11.986;2024-02-21T00:03:45;33.93;;;6.97;;
14817;SDS011;7500;57.698;11.986;2024-02-21T00:06:11;29.33;;;5.50;;
14817;SDS011;7500;57.698;11.986;2024-02-21T00:08:38;31.67;;;6.00;;
14817;SDS011;7500;57.698;11.986;2024-02-21T00:11:06;28.70;;;6.10;;
14817;SDS011;7500;57.698;11.986;2024-02-21T00:13:32;28.37;;;6.70;;
14817;SDS011;7500;57.698;11.986;2024-02-21T00:16:00;36.83;;;6.83;;
14817;SDS011;7500;57.698;11.986;2024-02-21T00:18:26;37.80;;;6.50;;
14817;SDS011;7500;57.698;11.986;2024-02-21T00:20:53;31.10;;;6.60;;
14817;SDS011;7500;57.698;11.986;2024-02-21T00:23:19;39.57;;;6.97;;
14817;SDS011;7500;57.698;11.986;2024-02-21T00:25:46;35.07;;;7.20;;
14817;SDS011;7500;57.698;11.986;2024-02-21T00:28:14;35.47;;;6.53;;
14817;SDS011;7500;57.698;11.986;2024-02-21T00:30:40;29.03;;;5.77;;
14817;SDS011;7500;57.698;11.986;2024-02-21T00:33:07;32.03;;;6.47;;
14817;SDS011;7500;57.698;11.986;2024-02-21T00:35:33;40.03;;;7.07;;
14817;SDS011;7500;57.698;11.986;2024-02-21T00:38:00;32.63;;;6.70;;
14817;SDS011;7500;57.698;11.986;2024-02-21T00:40:28;35.73;;;6.67;;
14817;SDS011;7500;57.698;11.986;2024-02-21T00:42:54;40.67;;;6.70;;
14817;SDS011;7500;57.698;11.986;2024-02-21T00:45:22;38.73;;;5.93;;
14817;SDS011;7500;57.698;11.986;2024-02-21T00:47:49;26.27;;;5.90;;
14817;SDS011;7500;57.698;11.986;2024-02-21T00:50:16;31.97;;;6.30;;
14817;SDS011;7500;57.698;11.986;2024-02-21T00:52:42;32.60;;;6.83;;
14817;SDS011;7500;57.698;11.986;2024-02-21T00:55:09;25.03;;;5.07;;
14817;SDS011;7500;57.698;11.986;2024-02-21T00:57:36;28.30;;;5.50;;
14817;SDS011;7500;57.698;11.986;2024-02-21T01:00:02;27.40;;;5.37;;
14817;SDS011;7500;57.698;11.986;2024-02-21T01:02:31;22.33;;;5.37;;
14817;SDS011;7500;57.698;11.986;2024-02-21T01:04:57;28.23;;;5.47;;
14817;SDS011;7500;57.698;11.986;2024-02-21T01:07:24;31.30;;;6.20;;
14817;SDS011;7500;57.698;11.986;2024-02-21T01:09:51;33.40;;;6.77;;
14817;SDS011;7500;57.698;11.986;2024-02-21T01:12:18;36.70;;;6.70;;
14817;SDS011;7500;57.698;11.986;2024-02-21T01:14:44;39.20;;;6.83;;
14817;SDS011;7500;57.698;11.986;2024-02-21T01:17:11;28.27;;;6.50;;
14817;SDS011;7500;57.698;11.986;2024-02-21T01:19:39;38.07;;;7.50;;
14817;SDS011;7500;57.698;11.986;2024-02-21T01:22:05;36.43;;;7.23;;
14817;SDS011;7500;57.698;11.986;2024-02-21T01:24:32;30.03;;;6.20;;
14817;SDS011;7500;57.698;11.986;2024-02-21T01:26:59;36.07;;;6.07;;
14817;SDS011;7500;57.698;11.986;2024-02-21T01:29:25;36.57;;;6.03;;
14817;SDS011;7500;57.698;11.986;2024-02-21T01:31:52;23.93;;;5.80;;
14817;SDS011;7500;57.698;11.986;2024-02-21T01:34:18;29.73;;;5.83;;
14817;SDS011;7500;57.698;11.986;2024-02-21T01:36:46;22.80;;;5.20;;
14817;SDS011;7500;57.698;11.986;2024-02-21T01:39:13;20.90;;;5.03;;
14817;SDS011;7500;57.698;11.986;2024-02-21T01:41:39;18.57;;;4.97;;
14817;SDS011;7500;57.698;11.986;2024-02-21T01:44:06;20.23;;;4.40;;
14817;SDS011;7500;57.698;11.986;2024-02-21T01:46:32;23.73;;;5.00;;
14817;SDS011;7500;57.698;11.986;2024-02-21T01:48:59;14.90;;;4.50;;
14817;SDS011;7500;57.698;11.986;2024-02-21T01:51:27;24.13;;;4.70;;
14817;SDS011;7500;57.698;11.986;2024-02-21T01:53:55;19.83;;;4.33;;
14817;SDS011;7500;57.698;11.986;2024-02-21T01:56:22;16.60;;;4.50;;
14817;SDS011;7500;57.698;11.986;2024-02-21T01:58:49;17.13;;;4.47;;
14817;SDS011;7500;57.698;11.986;2024-02-21T02:01:17;14.90;;;4.47;;
14817;SDS011;7500;57.698;11.986;2024-02-21T02:03:44;17.27;;;4.40;;
14817;SDS011;7500;57.698;11.986;2024-02-21T02:06:11;21.43;;;4.53;;
14817;SDS011;7500;57.698;11.986;2024-02-21T02:08:38;20.53;;;5.13;;
14817;SDS011;7500;57.698;11.986;2024-02-21T02:11:06;13.33;;;4.17;;
14817;SDS011;7500;57.698;11.986;2024-02-21T02:13:33;13.20;;;4.20;;
14817;SDS011;7500;57.698;11.986;2024-02-21T02:15:59;14.33;;;4.33;;
14817;SDS011;7500;57.698;11.986;2024-02-21T02:18:26;16.67;;;4.37;;
14817;SDS011;7500;57.698;11.986;2024-02-21T02:20:52;11.43;;;4.63;;
14817;SDS011;7500;57.698;11.986;2024-02-21T02:23:22;16.17;;;4.47;;
14817;SDS011;7500;57.698;11.986;2024-02-21T02:25:49;19.87;;;5.03;;
14817;SDS011;7500;57.698;11.986;2024-02-21T02:28:17;22.63;;;5.50;;
14817;SDS011;7500;57.698;11.986;2024-02-21T02:30:44;20.17;;;5.63;;
14817;SDS011;7500;57.698;11.986;2024-02-21T02:33:10;19.93;;;5.73;;
14817;SDS011;7500;57.698;11.986;2024-02-21T02:35:37;19.87;;;5.50;;
14817;SDS011;7500;57.698;11.986;2024-02-21T02:38:04;15.97;;;5.50;;
14817;SDS011;7500;57.698;11.986;2024-02-21T02:40:32;21.63;;;5.47;;
14817;SDS011;7500;57.698;11.986;2024-02-21T02:42:59;15.93;;;5.27;;
14817;SDS011;7500;57.698;11.986;2024-02-21T02:45:26;17.83;;;6.00;;
14817;SDS011;7500;57.698;11.986;2024-02-21T02:47:52;18.93;;;6.47;;
14817;SDS011;7500;57.698;11.986;2024-02-21T02:50:20;25.20;;;6.83;;
14817;SDS011;7500;57.698;11.986;2024-02-21T02:52:46;29.17;;;7.30;;
14817;SDS011;7500;57.698;11.986;2024-02-21T02:55:13;20.50;;;6.97;;
14817;SDS011;7500;57.698;11.986;2024-02-21T02:57:41;17.77;;;6.20;;
14817;SDS011;7500;57.698;11.986;2024-02-21T03:00:08;21.17;;;6.53;;
14817;SDS011;7500;57.698;11.986;2024-02-21T03:02:35;16.23;;;6.27;;
14817;SDS011;7500;57.698;11.986;2024-02-21T03:05:02;16.77;;;5.63;;
14817;SDS011;7500;57.698;11.986;2024-02-21T03:07:37;13.80;;;5.20;;
14817;SDS011;7500;57.698;11.986;2024-02-21T03:10:04;20.57;;;5.63;;
14817;SDS011;7500;57.698;11.986;2024-02-21T03:12:31;17.17;;;5.73;;
14817;SDS011;7500;57.698;11.986;2024-02-21T03:14:59;24.63;;;6.80;;
14817;SDS011;7500;57.698;11.986;2024-02-21T03:17:25;21.53;;;6.50;;
14817;SDS011;7500;57.698;11.986;2024-02-21T03:19:53;19.30;;;6.83;;
14817;SDS011;7500;57.698;11.986;2024-02-21T03:22:20;26.20;;;6.37;;
14817;SDS011;7500;57.698;11.986;2024-02-21T03:24:47;16.30;;;6.30;;
14817;SDS011;7500;57.698;11.986;2024-02-21T03:27:13;25.63;;;7.43;;
14817;SDS011;7500;57.698;11.986;2024-02-21T03:29:40;17.03;;;6.50;;
14817;SDS011;7500;57.698;11.986;2024-02-21T03:32:08;19.27;;;6.30;;
14817;SDS011;7500;57.698;11.986;2024-02-21T03:34:35;24.03;;;5.80;;
14817;SDS011;7500;57.698;11.986;2024-02-21T03:37:01;15.30;;;5.10;;
14817;SDS011;7500;57.698;11.986;2024-02-21T03:39:30;18.77;;;4.53;;
14817;SDS011;7500;57.698;11.986;2024-02-21T03:41:57;9.60;;;3.90;;
14817;SDS011;7500;57.698;11.986;2024-02-21T03:44:25;17.40;;;4.40;;
14817;SDS011;7500;57.698;11.986;2024-02-21T03:46:52;13.10;;;3.10;;
14817;SDS011;7500;57.698;11.986;2024-02-21T03:49:20;9.93;;;2.57;;
14817;SDS011;7500;57.698;11.986;2024-02-21T03:51:46;5.17;;;2.67;;
14817;SDS011;7500;57.698;11.986;2024-02-21T03:54:13;10.20;;;2.40;;
14817;SDS011;7500;57.698;11.986;2024-02-21T03:56:39;3.67;;;2.07;;
14817;SDS011;7500;57.698;11.986;2024-02-21T03:59:06;19.80;;;1.90;;
14817;SDS011;7500;57.698;11.986;2024-02-21T04:01:33;53.90;;;3.60;;
14817;SDS011;7500;57.698;11.986;2024-02-21T04:03:59;5.73;;;1.63;;
14817;SDS011;7500;57.698;11.986;2024-02-21T04:06:27;4.77;;;2.10;;
14817;SDS011;7500;57.698;11.986;2024-02-21T04:08:54;7.30;;;2.00;;
14817;SDS011;7500;57.698;11.986;2024-02-21T04:11:20;2.23;;;1.60;;
14817;SDS011;7500;57.698;11.986;2024-02-21T04:13:47;3.50;;;1.30;;
14817;SDS011;7500;57.698;11.986;2024-02-21T04:16:15;9.80;;;1.97;;
14817;SDS011;7500;57.698;11.986;2024-02-21T04:18:42;11.37;;;2.30;;
14817;SDS011;7500;57.698;11.986;2024-02-21T04:21:08;11.23;;;2.30;;
14817;SDS011;7500;57.698;11.986;2024-02-21T04:23:36;16.27;;;2.80;;
14817;SDS011;7500;57.698;11.986;2024-02-21T04:26:03;7.53;;;2.33;;
14817;SDS011;7500;57.698;11.986;2024-02-21T04:28:29;4.77;;;2.33;;
14817;SDS011;7500;57.698;11.986;2024-02-21T04:30:56;6.40;;;2.50;;
14817;SDS011;7500;57.698;11.986;2024-02-21T04:33:23;10.43;;;2.50;;
14817;SDS011;7500;57.698;11.986;2024-02-21T04:35:49;30.77;;;3.47;;
14817;SDS011;7500;57.698;11.986;2024-02-21T04:38:17;11.60;;;2.40;;
14817;SDS011;7500;57.698;11.986;2024-02-21T04:40:45;5.33;;;2.50;;
14817;SDS011;7500;57.698;11.986;2024-02-21T04:43:11;18.10;;;3.03;;
14817;SDS011;7500;57.698;11.986;2024-02-21T04:45:38;5.27;;;2.83;;
14817;SDS011;7500;57.698;11.986;2024-02-21T04:48:04;21.57;;;3.40;;
14817;SDS011;7500;57.698;11.986;2024-02-21T04:50:31;8.80;;;2.97;;
14817;SDS011;7500;57.698;11.986;2024-02-21T04:52:57;7.30;;;3.53;;
14817;SDS011;7500;57.698;11.986;2024-02-21T04:55:24;9.40;;;3.10;;
14817;SDS011;7500;57.698;11.986;2024-02-21T04:57:52;10.90;;;3.43;;
14817;SDS011;7500;57.698;11.986;2024-02-21T05:00:19;19.27;;;4.10;;
14817;SDS011;7500;57.698;11.986;2024-02-21T05:02:46;7.60;;;3.60;;
14817;SDS011;7500;57.698;11.986;2024-02-21T05:05:12;7.53;;;3.17;;
14817;SDS011;7500;57.698;11.986;2024-02-21T05:07:40;13.43;;;3.70;;
14817;SDS011;7500;57.698;11.986;2024-02-21T05:10:07;16.47;;;4.17;;
14817;SDS011;7500;57.698;11.986;2024-02-21T05:12:33;8.47;;;3.93;;
14817;SDS011;7500;57.698;11.986;2024-02-21T05:15:01;5.00;;;3.20;;
14817;SDS011;7500;57.698;11.986;2024-02-21T05:17:28;6.33;;;3.20;;
14817;SDS011;7500;57.698;11.986;2024-02-21T05:19:54;10.27;;;3.27;;
14817;SDS011;7500;57.698;11.986;2024-02-21T05:22:21;10.27;;;3.37;;
14817;SDS011;7500;57.698;11.986;2024-02-21T05:24:48;10.27;;;3.40;;
14817;SDS011;7500;57.698;11.986;2024-02-21T05:27:14;8.97;;;3.17;;
14817;SDS011;7500;57.698;11.986;2024-02-21T05:29:41;13.30;;;4.23;;
14817;SDS011;7500;57.698;11.986;2024-02-21T05:32:09;11.40;;;3.70;;
14817;SDS011;7500;57.698;11.986;2024-02-21T05:34:35;11.50;;;4.20;;
14817;SDS011;7500;57.698;11.986;2024-02-21T05:37:02;9.33;;;3.87;;
14817;SDS011;7500;57.698;11.986;2024-02-21T05:39:28;12.53;;;3.73;;
14817;SDS011;7500;57.698;11.986;2024-02-21T05:41:55;13.03;;;3.67;;
14817;SDS011;7500;57.698;11.986;2024-02-21T05:44:22;14.50;;;3.70;;
14817;SDS011;7500;57.698;11.986;2024-02-21T05:46:48;8.83;;;2.87;;
14817;SDS011;7500;57.698;11.986;2024-02-21T05:49:16;10.53;;;3.00;;
14817;SDS011;7500;57.698;11.986;2024-02-21T05:51:43;13.43;;;3.43;;
14817;SDS011;7500;57.698;11.986;2024-02-21T05:54:09;16.67;;;2.60;;
14817;SDS011;7500;57.698;11.986;2024-02-21T05:56:36;13.43;;;3.07;;
14817;SDS011;7500;57.698;11.986;2024-02-21T05:59:02;11.53;;;2.40;;
14817;SDS011;7500;57.698;11.986;2024-02-21T06:01:29;6.73;;;2.73;;
14817;SDS011;7500;57.698;11.986;2024-02-21T06:03:55;12.53;;;3.17;;
14817;SDS011;7500;57.698;11.986;2024-02-21T06:06:23;9.30;;;2.80;;
14817;SDS011;7500;57.698;11.986;2024-02-21T06:08:50;11.93;;;2.50;;
14817;SDS011;7500;57.698;11.986;2024-02-21T06:11:17;9.83;;;2.60;;
14817;SDS011;7500;57.698;11.986;2024-02-21T06:13:43;15.87;;;2.93;;
14817;SDS011;7500;57.698;11.986;2024-02-21T06:16:10;10.77;;;2.60;;
14817;SDS011;7500;57.698;11.986;2024-02-21T06:18:36;11.43;;;2.90;;
14817;SDS011;7500;57.698;11.986;2024-02-21T06:21:03;10.17;;;3.17;;
14817;SDS011;7500;57.698;11.986;2024-02-21T06:23:31;13.87;;;4.23;;
14817;SDS011;7500;57.698;11.986;2024-02-21T06:25:59;16.30;;;3.30;;
14817;SDS011;7500;57.698;11.986;2024-02-21T06:28:26;13.73;;;3.63;;
14817;SDS011;7500;57.698;11.986;2024-02-21T06:30:52;13.03;;;3.37;;
14817;SDS011;7500;57.698;11.986;2024-02-21T06:33:19;11.23;;;3.40;;
14817;SDS011;7500;57.698;11.986;2024-02-21T06:35:49;16.43;;;4.10;;
14817;SDS011;7500;57.698;11.986;2024-02-21T06:38:18;11.07;;;3.47;;
14817;SDS011;7500;57.698;11.986;2024-02-21T06:40:46;15.00;;;3.27;;
14817;SDS011;7500;57.698;11.986;2024-02-21T06:43:16;10.77;;;3.10;;
14817;SDS011;7500;57.698;11.986;2024-02-21T06:45:43;12.70;;;3.00;;
14817;SDS011;7500;57.698;11.986;2024-02-21T06:48:12;14.33;;;3.10;;
14817;SDS011;7500;57.698;11.986;2024-02-21T06:50:39;5.80;;;2.20;;
14817;SDS011;7500;57.698;11.986;2024-02-21T06:53:05;10.83;;;2.40;;
14817;SDS011;7500;57.698;11.986;2024-02-21T06:55:32;7.07;;;2.13;;
14817;SDS011;7500;57.698;11.986;2024-02-21T06:58:00;6.63;;;1.93;;
14817;SDS011;7500;57.698;11.986;2024-02-21T07:00:27;9.67;;;2.60;;
14817;SDS011;7500;57.698;11.986;2024-02-21T07:02:54;4.27;;;1.70;;
14817;SDS011;7500;57.698;11.986;2024-02-21T07:05:20;3.63;;;1.60;;
14817;SDS011;7500;57.698;11.986;2024-02-21T07:07:47;7.23;;;1.90;;
14817;SDS011;7500;57.698;11.986;2024-02-21T07:10:14;5.03;;;1.80;;
14817;SDS011;7500;57.698;11.986;2024-02-21T07:12:40;3.87;;;1.30;;
14817;SDS011;7500;57.698;11.986;2024-02-21T07:15:09;6.20;;;1.90;;
14817;SDS011;7500;57.698;11.986;2024-02-21T07:17:36;5.13;;;2.10;;
14817;SDS011;7500;57.698;11.986;2024-02-21T07:20:03;4.83;;;1.40;;
14817;SDS011;7500;57.698;11.986;2024-02-21T07:22:29;3.67;;;1.50;;
14817;SDS011;7500;57.698;11.986;2024-02-21T07:24:56;6.83;;;2.07;;
14817;SDS011;7500;57.698;11.986;2024-02-21T07:27:22;5.17;;;1.90;;
14817;SDS011;7500;57.698;11.986;2024-02-21T07:29:53;3.67;;;1.80;;
14817;SDS011;7500;57.698;11.986;2024-02-21T07:32:21;4.27;;;1.70;;
14817;SDS011;7500;57.698;11.986;2024-02-21T07:34:47;6.20;;;1.90;;
14817;SDS011;7500;57.698;11.986;2024-02-21T07:37:14;3.13;;;1.80;;
14817;SDS011;7500;57.698;11.986;2024-02-21T07:39:40;3.90;;;1.90;;
14817;SDS011;7500;57.698;11.986;2024-02-21T07:42:07;3.20;;;1.40;;
14817;SDS011;7500;57.698;11.986;2024-02-21T07:44:33;4.40;;;1.97;;
14817;SDS011;7500;57.698;11.986;2024-02-21T07:47:00;2.73;;;1.60;;
14817;SDS011;7500;57.698;11.986;2024-02-21T07:49:28;4.07;;;1.60;;
14817;SDS011;7500;57.698;11.986;2024-02-21T07:51:56;3.07;;;1.73;;
14817;SDS011;7500;57.698;11.986;2024-02-21T07:54:22;6.00;;;2.37;;
14817;SDS011;7500;57.698;11.986;2024-02-21T07:56:49;5.03;;;2.77;;
14817;SDS011;7500;57.698;11.986;2024-02-21T07:59:15;11.30;;;2.97;;
14817;SDS011;7500;57.698;11.986;2024-02-21T08:01:42;7.60;;;3.47;;
14817;SDS011;7500;57.698;11.986;2024-02-21T08:04:09;5.87;;;2.87;;
14817;SDS011;7500;57.698;11.986;2024-02-21T08:06:37;5.80;;;2.80;;
14817;SDS011;7500;57.698;11.986;2024-02-21T08:09:04;5.77;;;2.60;;
14817;SDS011;7500;57.698;11.986;2024-02-21T08:11:30;8.27;;;2.63;;
14817;SDS011;7500;57.698;11.986;2024-02-21T08:13:57;10.50;;;2.90;;
14817;SDS011;7500;57.698;11.986;2024-02-21T08:16:24;10.40;;;2.83;;
14817;SDS011;7500;57.698;11.986;2024-02-21T08:18:50;8.23;;;3.10;;
14817;SDS011;7500;57.698;11.986;2024-02-21T08:21:17;8.30;;;3.60;;
14817;SDS011;7500;57.698;11.986;2024-02-21T08:23:45;10.17;;;3.90;;
14817;SDS011;7500;57.698;11.986;2024-02-21T08:26:16;8.57;;;4.27;;
14817;SDS011;7500;57.698;11.986;2024-02-21T08:28:42;10.27;;;3.90;;
14817;SDS011;7500;57.698;11.986;2024-02-21T08:31:09;8.10;;;4.07;;
14817;SDS011;7500;57.698;11.986;2024-02-21T08:33:35;7.57;;;4.20;;
14817;SDS011;7500;57.698;11.986;2024-02-21T08:36:02;9.87;;;4.00;;
14817;SDS011;7500;57.698;11.986;2024-02-21T08:38:29;7.97;;;3.73;;
14817;SDS011;7500;57.698;11.986;2024-02-21T08:40:57;7.67;;;3.80;;
14817;SDS011;7500;57.698;11.986;2024-02-21T08:43:23;9.50;;;3.47;;
14817;SDS011;7500;57.698;11.986;2024-02-21T08:45:50;15.37;;;6.97;;
14817;SDS011;7500;57.698;11.986;2024-02-21T08:48:17;2.87;;;2.37;;
14817;SDS011;7500;57.698;11.986;2024-02-21T08:50:43;3.70;;;2.03;;
14817;SDS011;7500;57.698;11.986;2024-02-21T08:53:10;13.63;;;2.60;;
14817;SDS011;7500;57.698;11.986;2024-02-21T08:55:36;3.80;;;1.83;;
14817;SDS011;7500;57.698;11.986;2024-02-21T08:58:04;4.27;;;1.60;;
14817;SDS011;7500;57.698;11.986;2024-02-21T09:00:31;2.73;;;1.87;;
14817;SDS011;7500;57.698;11.986;2024-02-21T09:02:58;1.90;;;1.20;;
14817;SDS011;7500;57.698;11.986;2024-02-21T09:05:24;1.93;;;1.10;;
14817;SDS011;7500;57.698;11.986;2024-02-21T09:07:51;2.30;;;1.40;;
14817;SDS011;7500;57.698;11.986;2024-02-21T09:10:17;5.53;;;1.60;;
14817;SDS011;7500;57.698;11.986;2024-02-21T09:12:44;1.67;;;1.03;;
14817;SDS011;7500;57.698;11.986;2024-02-21T09:15:12;2.60;;;1.10;;
14817;SDS011;7500;57.698;11.986;2024-02-21T09:17:38;1.37;;;1.27;;
14817;SDS011;7500;57.698;11.986;2024-02-21T09:20:06;2.27;;;1.70;;
14817;SDS011;7500;57.698;11.986;2024-02-21T09:22:32;1.87;;;1.40;;
14817;SDS011;7500;57.698;11.986;2024-02-21T09:25:00;4.90;;;2.07;;
14817;SDS011;7500;57.698;11.986;2024-02-21T09:27:28;4.00;;;1.93;;
14817;SDS011;7500;57.698;11.986;2024-02-21T09:29:55;8.53;;;2.83;;
14817;SDS011;7500;57.698;11.986;2024-02-21T09:32:23;11.33;;;3.40;;
14817;SDS011;7500;57.698;11.986;2024-02-21T09:34:49;11.70;;;3.70;;
14817;SDS011;7500;57.698;11.986;2024-02-21T09:37:16;14.23;;;3.73;;
14817;SDS011;7500;57.698;11.986;2024-02-21T09:39:42;13.20;;;3.50;;
14817;SDS011;7500;57.698;11.986;2024-02-21T09:42:11;13.00;;;3.93;;
14817;SDS011;7500;57.698;11.986;2024-02-21T09:44:38;22.13;;;4.63;;
14817;SDS011;7500;57.698;11.986;2024-02-21T09:47:06;10.20;;;3.80;;
14817;SDS011;7500;57.698;11.986;2024-02-21T09:49:34;13.87;;;4.20;;
14817;SDS011;7500;57.698;11.986;2024-02-21T09:52:04;13.30;;;3.87;;
14817;SDS011;7500;57.698;11.986;2024-02-21T09:54:32;10.80;;;4.10;;
14817;SDS011;7500;57.698;11.986;2024-02-21T09:56:59;6.23;;;3.40;;
14817;SDS011;7500;57.698;11.986;2024-02-21T09:59:25;10.27;;;3.90;;
14817;SDS011;7500;57.698;11.986;2024-02-21T10:01:53;5.27;;;2.80;;
14817;SDS011;7500;57.698;11.986;2024-02-21T10:04:20;7.47;;;3.13;;
14817;SDS011;7500;57.698;11.986;2024-02-21T10:06:48;10.13;;;3.83;;
14817;SDS011;7500;57.698;11.986;2024-02-21T10:09:21;8.03;;;3.40;;
14817;SDS011;7500;57.698;11.986;2024-02-21T10:11:49;6.90;;;3.30;;
14817;SDS011;7500;57.698;11.986;2024-02-21T10:14:15;7.13;;;3.63;;
14817;SDS011;7500;57.698;11.986;2024-02-21T10:16:43;5.77;;;2.90;;
14817;SDS011;7500;57.698;11.986;2024-02-21T10:19:16;7.37;;;2.83;;
14817;SDS011;7500;57.698;11.986;2024-02-21T10:21:42;7.30;;;3.10;;
14817;SDS011;7500;57.698;11.986;2024-02-21T10:24:11;7.90;;;2.93;;
14817;SDS011;7500;57.698;11.986;2024-02-21T10:26:38;15.07;;;3.50;;
14817;SDS011;7500;57.698;11.986;2024-02-21T10:29:04;4.10;;;2.63;;
14817;SDS011;7500;57.698;11.986;2024-02-21T10:31:31;5.93;;;2.60;;
14817;SDS011;7500;57.698;11.986;2024-02-21T10:33:59;3.10;;;1.80;;
14817;SDS011;7500;57.698;11.986;2024-02-21T10:36:28;2.90;;;1.90;;
14817;SDS011;7500;57.698;11.986;2024-02-21T10:38:54;4.97;;;1.93;;
14817;SDS011;7500;57.698;11.986;2024-02-21T10:41:23;3.67;;;2.10;;
14817;SDS011;7500;57.698;11.986;2024-02-21T10:43:50;4.27;;;1.80;;
14817;SDS011;7500;57.698;11.986;2024-02-21T10:46:19;3.47;;;2.20;;
14817;SDS011;7500;57.698;11.986;2024-02-21T10:48:46;3.10;;;1.90;;
14817;SDS011;7500;57.698;11.986;2024-02-21T10:51:14;2.70;;;1.60;;
14817;SDS011;7500;57.698;11.986;2024-02-21T10:53:43;6.00;;;2.40;;
14817;SDS011;7500;57.698;11.986;2024-02-21T10:56:15;8.27;;;3.33;;
14817;SDS011;7500;57.698;11.986;2024-02-21T10:58:44;4.67;;;2.50;;
14817;SDS011;7500;57.698;11.986;2024-02-21T11:01:12;6.83;;;2.80;;
14817;SDS011;7500;57.698;11.986;2024-02-21T11:03:40;7.00;;;3.27;;
14817;SDS011;7500;57.698;11.986;2024-02-21T11:06:07;10.70;;;4.63;;
14817;SDS011;7500;57.698;11.986;2024-02-21T11:08:35;6.73;;;3.83;;
14817;SDS011;7500;57.698;11.986;2024-02-21T11:11:01;10.87;;;4.80;;
14817;SDS011;7500;57.698;11.986;2024-02-21T11:13:31;8.77;;;4.53;;
14817;SDS011;7500;57.698;11.986;2024-02-21T11:16:10;9.97;;;4.97;;
14817;SDS011;7500;57.698;11.986;2024-02-21T11:18:36;7.40;;;3.53;;
14817;SDS011;7500;57.698;11.986;2024-02-21T11:21:03;14.27;;;5.10;;
14817;SDS011;7500;57.698;11.986;2024-02-21T11:23:31;7.90;;;4.60;;
14817;SDS011;7500;57.698;11.986;2024-02-21T11:26:04;8.20;;;4.13;;
14817;SDS011;7500;57.698;11.986;2024-02-21T11:28:30;13.17;;;4.80;;
14817;SDS011;7500;57.698;11.986;2024-02-21T11:31:05;15.20;;;5.80;;
14817;SDS011;7500;57.698;11.986;2024-02-21T11:33:34;12.20;;;5.80;;
14817;SDS011;7500;57.698;11.986;2024-02-21T11:36:01;17.33;;;5.90;;
14817;SDS011;7500;57.698;11.986;2024-02-21T11:38:29;11.13;;;5.37;;
14817;SDS011;7500;57.698;11.986;2024-02-21T11:40:56;10.60;;;6.70;;
14817;SDS011;7500;57.698;11.986;2024-02-21T11:43:23;12.50;;;6.30;;
14817;SDS011;7500;57.698;11.986;2024-02-21T11:45:50;12.97;;;6.40;;
14817;SDS011;7500;57.698;11.986;2024-02-21T11:48:17;16.50;;;7.27;;
14817;SDS011;7500;57.698;11.986;2024-02-21T11:50:53;15.03;;;7.67;;
14817;SDS011;7500;57.698;11.986;2024-02-21T11:53:21;13.77;;;6.97;;
14817;SDS011;7500;57.698;11.986;2024-02-21T11:55:47;18.93;;;8.53;;
14817;SDS011;7500;57.698;11.986;2024-02-21T11:58:14;12.00;;;6.80;;
14817;SDS011;7500;57.698;11.986;2024-02-21T12:00:41;13.33;;;7.20;;
14817;SDS011;7500;57.698;11.986;2024-02-21T12:03:07;16.53;;;7.53;;
14817;SDS011;7500;57.698;11.986;2024-02-21T12:05:34;13.37;;;6.30;;
14817;SDS011;7500;57.698;11.986;2024-02-21T12:08:02;12.60;;;6.27;;
14817;SDS011;7500;57.698;11.986;2024-02-21T12:10:30;9.17;;;5.20;;
14817;SDS011;7500;57.698;11.986;2024-02-21T12:13:04;11.47;;;6.10;;
14817;SDS011;7500;57.698;11.986;2024-02-21T12:15:31;10.70;;;6.13;;
14817;SDS011;7500;57.698;11.986;2024-02-21T12:17:58;14.17;;;7.73;;
14817;SDS011;7500;57.698;11.986;2024-02-21T12:20:25;15.13;;;7.43;;
14817;SDS011;7500;57.698;11.986;2024-02-21T12:22:52;14.40;;;7.87;;
14817;SDS011;7500;57.698;11.986;2024-02-21T12:25:21;15.53;;;9.10;;
14817;SDS011;7500;57.698;11.986;2024-02-21T12:27:51;12.77;;;6.27;;
14817;SDS011;7500;57.698;11.986;2024-02-21T12:30:17;13.93;;;6.60;;
14817;SDS011;7500;57.698;11.986;2024-02-21T12:32:44;11.87;;;6.03;;
14817;SDS011;7500;57.698;11.986;2024-02-21T12:35:11;12.47;;;5.60;;
14817;SDS011;7500;57.698;11.986;2024-02-21T12:37:37;9.30;;;5.17;;
14817;SDS011;7500;57.698;11.986;2024-02-21T12:40:04;10.33;;;6.20;;
14817;SDS011;7500;57.698;11.986;2024-02-21T12:42:33;11.27;;;6.07;;
14817;SDS011;7500;57.698;11.986;2024-02-21T12:45:00;10.90;;;6.20;;
14817;SDS011;7500;57.698;11.986;2024-02-21T12:47:28;10.27;;;6.37;;
14817;SDS011;7500;57.698;11.986;2024-02-21T12:49:54;14.87;;;6.63;;
14817;SDS011;7500;57.698;11.986;2024-02-21T12:52:21;12.07;;;6.53;;
14817;SDS011;7500;57.698;11.986;2024-02-21T12:54:47;9.70;;;5.57;;
14817;SDS011;7500;57.698;11.986;2024-02-21T12:57:15;8.83;;;5.40;;
14817;SDS011;7500;57.698;11.986;2024-02-21T12:59:43;11.93;;;6.53;;
14817;SDS011;7500;57.698;11.986;2024-02-21T13:02:10;8.17;;;5.43;;
14817;SDS011;7500;57.698;11.986;2024-02-21T13:04:36;8.37;;;4.97;;
14817;SDS011;7500;57.698;11.986;2024-02-21T13:07:05;7.57;;;5.20;;
14817;SDS011;7500;57.698;11.986;2024-02-21T13:09:32;9.97;;;6.20;;
14817;SDS011;7500;57.698;11.986;2024-02-21T13:11:59;11.47;;;7.33;;
14817;SDS011;7500;57.698;11.986;2024-02-21T13:14:27;13.67;;;7.90;;
14817;SDS011;7500;57.698;11.986;2024-02-21T13:16:55;12.73;;;7.27;;
14817;SDS011;7500;57.698;11.986;2024-02-21T13:19:22;11.37;;;7.07;;
14817;SDS011;7500;57.698;11.986;2024-02-21T13:21:48;12.27;;;6.83;;
14817;SDS011;7500;57.698;11.986;2024-02-21T13:24:15;9.77;;;5.97;;
14817;SDS011;7500;57.698;11.986;2024-02-21T13:26:41;10.67;;;5.53;;
14817;SDS011;7500;57.698;11.986;2024-02-21T13:29:08;7.10;;;5.50;;
14817;SDS011;7500;57.698;11.986;2024-02-21T13:31:34;6.77;;;5.47;;
14817;SDS011;7500;57.698;11.986;2024-02-21T13:34:02;6.77;;;5.20;;
14817;SDS011;7500;57.698;11.986;2024-02-21T13:36:29;8.33;;;5.20;;
14817;SDS011;7500;57.698;11.986;2024-02-21T13:38:56;10.17;;;5.23;;
14817;SDS011;7500;57.698;11.986;2024-02-21T13:41:22;9.80;;;4.37;;
14817;SDS011;7500;57.698;11.986;2024-02-21T13:43:49;6.23;;;3.37;;
14817;SDS011;7500;57.698;11.986;2024-02-21T13:46:15;6.37;;;3.20;;
14817;SDS011;7500;57.698;11.986;2024-02-21T13:48:42;8.67;;;3.07;;
14817;SDS011;7500;57.698;11.986;2024-02-21T13:51:10;5.67;;;2.90;;
14817;SDS011;7500;57.698;11.986;2024-02-21T13:53:37;4.73;;;2.77;;
14817;SDS011;7500;57.698;11.986;2024-02-21T13:56:03;6.83;;;3.30;;
14817;SDS011;7500;57.698;11.986;2024-02-21T13:58:30;4.93;;;2.67;;
14817;SDS011;7500;57.698;11.986;2024-02-21T14:00:56;4.77;;;2.50;;
14817;SDS011;7500;57.698;11.986;2024-02-21T14:03:23;6.13;;;2.00;;
14817;SDS011;7500;57.698;11.986;2024-02-21T14:05:50;3.73;;;2.17;;
14817;SDS011;7500;57.698;11.986;2024-02-21T14:08:19;6.83;;;2.30;;
14817;SDS011;7500;57.698;11.986;2024-02-21T14:10:45;4.43;;;2.10;;
14817;SDS011;7500;57.698;11.986;2024-02-21T14:13:12;5.60;;;1.83;;
14817;SDS011;7500;57.698;11.986;2024-02-21T14:15:39;4.30;;;1.80;;
14817;SDS011;7500;57.698;11.986;2024-02-21T14:18:06;4.13;;;2.00;;
14817;SDS011;7500;57.698;11.986;2024-02-21T14:20:34;3.37;;;1.30;;
14817;SDS011;7500;57.698;11.986;2024-02-21T14:23:01;4.87;;;1.40;;
14817;SDS011;7500;57.698;11.986;2024-02-21T14:25:29;4.50;;;1.20;;
14817;SDS011;7500;57.698;11.986;2024-02-21T14:27:55;6.47;;;1.73;;
14817;SDS011;7500;57.698;11.986;2024-02-21T14:30:22;4.33;;;1.47;;
14817;SDS011;7500;57.698;11.986;2024-02-21T14:32:48;5.33;;;1.30;;
14817;SDS011;7500;57.698;11.986;2024-02-21T14:35:16;5.93;;;1.60;;
14817;SDS011;7500;57.698;11.986;2024-02-21T14:37:43;7.37;;;1.43;;
14817;SDS011;7500;57.698;11.986;2024-02-21T14:40:11;8.40;;;1.90;;